sensor_id;sensor_type;location;lat;lon;timestamp;temperature;humidity
5041;DHT22;2539;52.568;13.364;2023-03-14T00:04:56;11.80;99.90
5041;DHT22;2539;52.568;13.364;2023-03-14T00:09:51;11.70;99.90
5041;DHT22;2539;52.568;13.364;2023-03-14T00:19:37;11.60;99.90
5041;DHT22;2539;52.568;13.364;2023-03-14T00:24:30;11.60;99.90
5041;DHT22;2539;52.568;13.364;2023-03-14T00:26:56;11.60;99.90
5041;DHT22;2539;52.568;13.364;2023-03-14T00:29:22;11.50;99.90
5041;DHT22;2539;52.568;13.364;2023-03-14T00:31:49;11.40;99.90
5041;DHT22;2539;52.568;13.364;2023-03-14T00:34:15;11.40;99.90
5041;DHT22;2539;52.568;13.364;2023-03-14T00:44:02;11.40;99.90
5041;DHT22;2539;52.568;13.364;2023-03-14T00:46:28;11.40;99.90
5041;DHT22;2539;52.568;13.364;2023-03-14T00:48:54;11.40;99.90
5041;DHT22;2539;52.568;13.364;2023-03-14T00:53:47;11.40;99.90
5041;DHT22;2539;52.568;13.364;2023-03-14T00:56:14;11.40;99.90
5041;DHT22;2539;52.568;13.364;2023-03-14T00:58:41;11.40;99.90
5041;DHT22;2539;52.568;13.364;2023-03-14T01:01:10;11.40;99.90
5041;DHT22;2539;52.568;13.364;2023-03-14T01:03:37;11.40;99.90
5041;DHT22;2539;52.568;13.364;2023-03-14T01:06:16;11.30;99.90
5041;DHT22;2539;52.568;13.364;2023-03-14T01:11:14;11.30;99.90
5041;DHT22;2539;52.568;13.364;2023-03-14T01:13:41;11.30;99.90
5041;DHT22;2539;52.568;13.364;2023-03-14T01:16:09;11.30;99.90
5041;DHT22;2539;52.568;13.364;2023-03-14T01:18:37;11.20;99.90
5041;DHT22;2539;52.568;13.364;2023-03-14T01:21:10;11.20;99.90
5041;DHT22;2539;52.568;13.364;2023-03-14T01:23:43;11.20;99.90
5041;DHT22;2539;52.568;13.364;2023-03-14T01:26:13;11.10;99.90
5041;DHT22;2539;52.568;13.364;2023-03-14T01:28:41;11.10;99.90
5041;DHT22;2539;52.568;13.364;2023-03-14T01:31:09;11.10;99.90
5041;DHT22;2539;52.568;13.364;2023-03-14T01:33:36;11.10;99.90
5041;DHT22;2539;52.568;13.364;2023-03-14T01:36:02;11.20;99.90
5041;DHT22;2539;52.568;13.364;2023-03-14T01:38:31;11.20;99.90
5041;DHT22;2539;52.568;13.364;2023-03-14T01:40:58;11.20;99.90
5041;DHT22;2539;52.568;13.364;2023-03-14T01:43:24;11.30;99.90
5041;DHT22;2539;52.568;13.364;2023-03-14T01:48:36;11.30;99.90
5041;DHT22;2539;52.568;13.364;2023-03-14T01:51:05;11.30;99.90
5041;DHT22;2539;52.568;13.364;2023-03-14T01:53:34;11.20;99.90
5041;DHT22;2539;52.568;13.364;2023-03-14T01:56:01;11.20;99.90
5041;DHT22;2539;52.568;13.364;2023-03-14T01:58:31;11.20;99.90
5041;DHT22;2539;52.568;13.364;2023-03-14T02:01:02;12.70;99.90
5041;DHT22;2539;52.568;13.364;2023-03-14T02:03:30;11.20;99.90
5041;DHT22;2539;52.568;13.364;2023-03-14T02:06:05;11.20;99.90
5041;DHT22;2539;52.568;13.364;2023-03-14T02:08:33;11.20;99.90
5041;DHT22;2539;52.568;13.364;2023-03-14T02:13:28;11.10;99.90
5041;DHT22;2539;52.568;13.364;2023-03-14T02:21:01;11.10;99.90
5041;DHT22;2539;52.568;13.364;2023-03-14T02:26:09;11.10;99.90
5041;DHT22;2539;52.568;13.364;2023-03-14T02:28:37;11.10;99.90
5041;DHT22;2539;52.568;13.364;2023-03-14T02:31:04;11.10;99.90
5041;DHT22;2539;52.568;13.364;2023-03-14T02:36:03;11.20;99.90
5041;DHT22;2539;52.568;13.364;2023-03-14T02:39:08;11.20;99.90
5041;DHT22;2539;52.568;13.364;2023-03-14T02:44:04;11.30;99.90
5041;DHT22;2539;52.568;13.364;2023-03-14T02:46:30;11.30;99.90
5041;DHT22;2539;52.568;13.364;2023-03-14T02:49:08;11.30;99.90
5041;DHT22;2539;52.568;13.364;2023-03-14T02:51:37;11.30;99.90
5041;DHT22;2539;52.568;13.364;2023-03-14T02:56:30;11.20;99.90
5041;DHT22;2539;52.568;13.364;2023-03-14T02:58:56;11.20;99.90
5041;DHT22;2539;52.568;13.364;2023-03-14T03:01:24;11.10;99.90
5041;DHT22;2539;52.568;13.364;2023-03-14T03:06:17;11.00;99.90
5041;DHT22;2539;52.568;13.364;2023-03-14T03:11:10;11.00;99.90
5041;DHT22;2539;52.568;13.364;2023-03-14T03:13:37;11.00;99.90
5041;DHT22;2539;52.568;13.364;2023-03-14T03:16:03;10.90;99.90
5041;DHT22;2539;52.568;13.364;2023-03-14T03:21:00;10.80;99.90
5041;DHT22;2539;52.568;13.364;2023-03-14T03:28:20;10.80;99.90
5041;DHT22;2539;52.568;13.364;2023-03-14T03:33:14;10.80;99.90
5041;DHT22;2539;52.568;13.364;2023-03-14T03:35:48;10.80;99.90
5041;DHT22;2539;52.568;13.364;2023-03-14T03:40:42;10.70;99.90
5041;DHT22;2539;52.568;13.364;2023-03-14T03:43:09;10.70;99.90
5041;DHT22;2539;52.568;13.364;2023-03-14T03:45:35;10.60;99.90
5041;DHT22;2539;52.568;13.364;2023-03-14T03:48:01;10.70;99.90
5041;DHT22;2539;52.568;13.364;2023-03-14T03:52:53;10.70;99.90
5041;DHT22;2539;52.568;13.364;2023-03-14T03:55:18;10.70;99.90
5041;DHT22;2539;52.568;13.364;2023-03-14T04:00:11;10.70;99.90
5041;DHT22;2539;52.568;13.364;2023-03-14T04:05:05;10.60;99.90
5041;DHT22;2539;52.568;13.364;2023-03-14T04:07:32;10.70;99.90
5041;DHT22;2539;52.568;13.364;2023-03-14T04:09:58;10.60;99.90
5041;DHT22;2539;52.568;13.364;2023-03-14T04:12:25;10.60;99.90
5041;DHT22;2539;52.568;13.364;2023-03-14T04:17:18;10.60;99.90
5041;DHT22;2539;52.568;13.364;2023-03-14T04:22:11;10.60;99.90
5041;DHT22;2539;52.568;13.364;2023-03-14T04:27:04;10.60;99.90
5041;DHT22;2539;52.568;13.364;2023-03-14T04:31:57;10.60;99.90
5041;DHT22;2539;52.568;13.364;2023-03-14T04:34:23;10.60;99.90
5041;DHT22;2539;52.568;13.364;2023-03-14T04:36:49;10.60;99.90
5041;DHT22;2539;52.568;13.364;2023-03-14T04:39:15;10.60;99.90
5041;DHT22;2539;52.568;13.364;2023-03-14T04:41:41;10.60;99.90
5041;DHT22;2539;52.568;13.364;2023-03-14T04:44:08;10.60;99.90
5041;DHT22;2539;52.568;13.364;2023-03-14T04:46:34;10.60;99.90
5041;DHT22;2539;52.568;13.364;2023-03-14T04:56:21;10.50;99.90
5041;DHT22;2539;52.568;13.364;2023-03-14T04:58:47;10.50;99.90
5041;DHT22;2539;52.568;13.364;2023-03-14T05:03:40;10.60;99.90
5041;DHT22;2539;52.568;13.364;2023-03-14T05:06:06;10.60;99.90
5041;DHT22;2539;52.568;13.364;2023-03-14T05:08:33;10.60;99.90
5041;DHT22;2539;52.568;13.364;2023-03-14T05:10:59;10.60;99.90
5041;DHT22;2539;52.568;13.364;2023-03-14T05:13:25;10.60;99.90
5041;DHT22;2539;52.568;13.364;2023-03-14T05:15:52;10.70;99.90
5041;DHT22;2539;52.568;13.364;2023-03-14T05:18:18;10.60;99.90
5041;DHT22;2539;52.568;13.364;2023-03-14T05:20:44;10.70;99.90
5041;DHT22;2539;52.568;13.364;2023-03-14T05:23:11;10.60;99.90
5041;DHT22;2539;52.568;13.364;2023-03-14T05:25:37;10.60;99.90
5041;DHT22;2539;52.568;13.364;2023-03-14T05:28:03;10.70;99.90
5041;DHT22;2539;52.568;13.364;2023-03-14T05:32:58;10.60;99.90
5041;DHT22;2539;52.568;13.364;2023-03-14T05:35:24;10.70;99.90
5041;DHT22;2539;52.568;13.364;2023-03-14T05:37:50;10.70;99.90
5041;DHT22;2539;52.568;13.364;2023-03-14T05:40:17;10.70;99.90
5041;DHT22;2539;52.568;13.364;2023-03-14T05:45:10;10.70;99.90
5041;DHT22;2539;52.568;13.364;2023-03-14T05:50:03;10.80;99.90
5041;DHT22;2539;52.568;13.364;2023-03-14T05:52:30;13.60;99.90
5041;DHT22;2539;52.568;13.364;2023-03-14T05:54:56;10.80;99.90
5041;DHT22;2539;52.568;13.364;2023-03-14T06:04:42;10.80;99.90
5041;DHT22;2539;52.568;13.364;2023-03-14T06:09:35;10.80;99.90
5041;DHT22;2539;52.568;13.364;2023-03-14T06:12:02;10.90;99.90
5041;DHT22;2539;52.568;13.364;2023-03-14T06:14:29;10.90;99.90
5041;DHT22;2539;52.568;13.364;2023-03-14T06:31:36;11.10;99.90
5041;DHT22;2539;52.568;13.364;2023-03-14T06:34:03;11.30;99.90
5041;DHT22;2539;52.568;13.364;2023-03-14T06:38:57;11.40;99.90
5041;DHT22;2539;52.568;13.364;2023-03-14T06:46:18;11.50;99.90
5041;DHT22;2539;52.568;13.364;2023-03-14T06:48:45;11.60;99.90
5041;DHT22;2539;52.568;13.364;2023-03-14T06:53:38;11.70;99.90
5041;DHT22;2539;52.568;13.364;2023-03-14T06:58:31;11.90;99.90
5041;DHT22;2539;52.568;13.364;2023-03-14T07:00:57;11.90;99.90
5041;DHT22;2539;52.568;13.364;2023-03-14T07:05:51;12.20;99.90
5041;DHT22;2539;52.568;13.364;2023-03-14T07:08:18;12.20;99.90
5041;DHT22;2539;52.568;13.364;2023-03-14T07:18:04;12.20;99.90
5041;DHT22;2539;52.568;13.364;2023-03-14T07:20:30;12.00;99.90
5041;DHT22;2539;52.568;13.364;2023-03-14T07:22:58;11.80;99.90
5041;DHT22;2539;52.568;13.364;2023-03-14T07:27:56;11.70;99.90
5041;DHT22;2539;52.568;13.364;2023-03-14T07:30:22;11.60;99.90
5041;DHT22;2539;52.568;13.364;2023-03-14T07:32:48;11.60;99.90
5041;DHT22;2539;52.568;13.364;2023-03-14T07:35:14;11.70;99.90
5041;DHT22;2539;52.568;13.364;2023-03-14T07:37:40;11.70;99.90
5041;DHT22;2539;52.568;13.364;2023-03-14T07:42:33;11.80;99.90
5041;DHT22;2539;52.568;13.364;2023-03-14T07:44:59;11.90;99.90
5041;DHT22;2539;52.568;13.364;2023-03-14T07:52:18;11.80;99.90
5041;DHT22;2539;52.568;13.364;2023-03-14T07:57:11;11.60;99.90
5041;DHT22;2539;52.568;13.364;2023-03-14T08:02:05;12.10;99.90
5041;DHT22;2539;52.568;13.364;2023-03-14T08:04:35;12.30;99.90
5041;DHT22;2539;52.568;13.364;2023-03-14T08:07:02;12.50;99.90
5041;DHT22;2539;52.568;13.364;2023-03-14T08:09:29;12.60;99.90
5041;DHT22;2539;52.568;13.364;2023-03-14T08:14:21;13.00;99.90
5041;DHT22;2539;52.568;13.364;2023-03-14T08:16:50;13.10;99.90
5041;DHT22;2539;52.568;13.364;2023-03-14T08:21:44;13.30;99.90
5041;DHT22;2539;52.568;13.364;2023-03-14T08:26:37;13.60;99.90
5041;DHT22;2539;52.568;13.364;2023-03-14T08:29:03;13.80;99.90
5041;DHT22;2539;52.568;13.364;2023-03-14T08:31:30;13.70;99.90
5041;DHT22;2539;52.568;13.364;2023-03-14T08:34:00;13.50;99.90
5041;DHT22;2539;52.568;13.364;2023-03-14T08:36:26;13.30;99.90
5041;DHT22;2539;52.568;13.364;2023-03-14T08:38:53;13.20;99.90
5041;DHT22;2539;52.568;13.364;2023-03-14T08:41:20;13.20;99.90
5041;DHT22;2539;52.568;13.364;2023-03-14T08:43:46;13.10;99.90
5041;DHT22;2539;52.568;13.364;2023-03-14T08:46:13;13.10;99.90
5041;DHT22;2539;52.568;13.364;2023-03-14T08:51:10;13.30;99.90
5041;DHT22;2539;52.568;13.364;2023-03-14T08:53:38;13.40;99.90
5041;DHT22;2539;52.568;13.364;2023-03-14T08:56:05;13.40;99.90
5041;DHT22;2539;52.568;13.364;2023-03-14T08:58:32;13.40;99.90
5041;DHT22;2539;52.568;13.364;2023-03-14T09:00:59;13.40;99.90
5041;DHT22;2539;52.568;13.364;2023-03-14T09:03:26;13.50;99.90
5041;DHT22;2539;52.568;13.364;2023-03-14T09:05:52;13.60;99.90
5041;DHT22;2539;52.568;13.364;2023-03-14T09:08:18;13.70;99.90
5041;DHT22;2539;52.568;13.364;2023-03-14T09:10:44;13.90;99.90
5041;DHT22;2539;52.568;13.364;2023-03-14T09:15:37;14.40;99.90
5041;DHT22;2539;52.568;13.364;2023-03-14T09:18:04;14.50;99.90
5041;DHT22;2539;52.568;13.364;2023-03-14T09:25:24;14.30;99.90
5041;DHT22;2539;52.568;13.364;2023-03-14T09:30:17;14.40;99.90
5041;DHT22;2539;52.568;13.364;2023-03-14T09:32:43;14.60;99.90
5041;DHT22;2539;52.568;13.364;2023-03-14T09:35:10;14.60;99.90
5041;DHT22;2539;52.568;13.364;2023-03-14T09:37:36;14.80;99.90
5041;DHT22;2539;52.568;13.364;2023-03-14T09:40:03;14.90;99.90
5041;DHT22;2539;52.568;13.364;2023-03-14T09:42:37;15.00;99.90
5041;DHT22;2539;52.568;13.364;2023-03-14T09:45:11;15.20;99.90
5041;DHT22;2539;52.568;13.364;2023-03-14T09:47:37;15.00;99.90
5041;DHT22;2539;52.568;13.364;2023-03-14T09:50:03;15.30;99.90
5041;DHT22;2539;52.568;13.364;2023-03-14T09:52:33;15.40;99.90
5041;DHT22;2539;52.568;13.364;2023-03-14T09:55:27;15.30;99.90
5041;DHT22;2539;52.568;13.364;2023-03-14T09:58:00;15.10;99.90
5041;DHT22;2539;52.568;13.364;2023-03-14T10:00:29;14.90;99.90
5041;DHT22;2539;52.568;13.364;2023-03-14T10:03:00;14.70;99.90
5041;DHT22;2539;52.568;13.364;2023-03-14T10:05:33;14.70;99.90
5041;DHT22;2539;52.568;13.364;2023-03-14T10:07:59;14.70;99.90
5041;DHT22;2539;52.568;13.364;2023-03-14T10:10:26;14.50;99.90
5041;DHT22;2539;52.568;13.364;2023-03-14T10:13:15;14.80;99.90
5041;DHT22;2539;52.568;13.364;2023-03-14T10:16:02;14.80;99.90
5041;DHT22;2539;52.568;13.364;2023-03-14T10:18:30;14.90;99.90
5041;DHT22;2539;52.568;13.364;2023-03-14T10:21:28;14.70;99.90
5041;DHT22;2539;52.568;13.364;2023-03-14T10:24:07;14.70;99.90
5041;DHT22;2539;52.568;13.364;2023-03-14T10:26:34;14.60;99.90
5041;DHT22;2539;52.568;13.364;2023-03-14T10:29:11;14.50;99.90
5041;DHT22;2539;52.568;13.364;2023-03-14T10:32:05;14.50;99.90
5041;DHT22;2539;52.568;13.364;2023-03-14T10:34:35;14.30;99.90
5041;DHT22;2539;52.568;13.364;2023-03-14T10:37:20;14.10;99.90
5041;DHT22;2539;52.568;13.364;2023-03-14T10:39:53;14.10;99.90
5041;DHT22;2539;52.568;13.364;2023-03-14T10:42:24;14.00;99.90
5041;DHT22;2539;52.568;13.364;2023-03-14T10:44:56;13.90;99.90
5041;DHT22;2539;52.568;13.364;2023-03-14T10:47:24;13.90;99.90
5041;DHT22;2539;52.568;13.364;2023-03-14T10:49:51;13.90;99.90
5041;DHT22;2539;52.568;13.364;2023-03-14T10:52:22;13.90;99.90
5041;DHT22;2539;52.568;13.364;2023-03-14T10:54:55;13.90;99.90
5041;DHT22;2539;52.568;13.364;2023-03-14T10:59:49;14.00;99.90
5041;DHT22;2539;52.568;13.364;2023-03-14T11:05:31;14.00;99.90
5041;DHT22;2539;52.568;13.364;2023-03-14T11:08:31;14.10;99.90
5041;DHT22;2539;52.568;13.364;2023-03-14T11:11:02;14.00;99.90
5041;DHT22;2539;52.568;13.364;2023-03-14T11:13:59;14.00;99.90
5041;DHT22;2539;52.568;13.364;2023-03-14T11:16:34;13.90;99.90
5041;DHT22;2539;52.568;13.364;2023-03-14T11:22:21;13.80;99.90
5041;DHT22;2539;52.568;13.364;2023-03-14T11:27:41;13.80;99.90
5041;DHT22;2539;52.568;13.364;2023-03-14T11:30:18;13.70;99.90
5041;DHT22;2539;52.568;13.364;2023-03-14T11:33:03;13.90;99.90
5041;DHT22;2539;52.568;13.364;2023-03-14T11:35:39;13.90;99.90
5041;DHT22;2539;52.568;13.364;2023-03-14T11:38:30;13.90;99.90
5041;DHT22;2539;52.568;13.364;2023-03-14T11:40:58;14.10;99.90
5041;DHT22;2539;52.568;13.364;2023-03-14T11:43:30;14.10;99.90
5041;DHT22;2539;52.568;13.364;2023-03-14T11:46:05;14.10;99.90
5041;DHT22;2539;52.568;13.364;2023-03-14T11:48:38;14.10;99.90
5041;DHT22;2539;52.568;13.364;2023-03-14T11:51:12;14.10;99.90
5041;DHT22;2539;52.568;13.364;2023-03-14T11:53:46;14.10;99.90
5041;DHT22;2539;52.568;13.364;2023-03-14T11:56:23;14.20;99.90
5041;DHT22;2539;52.568;13.364;2023-03-14T11:59:00;13.50;99.90
5041;DHT22;2539;52.568;13.364;2023-03-14T12:01:40;14.50;99.90
5041;DHT22;2539;52.568;13.364;2023-03-14T12:04:19;14.40;99.90
5041;DHT22;2539;52.568;13.364;2023-03-14T12:06:51;14.40;99.90
5041;DHT22;2539;52.568;13.364;2023-03-14T12:09:20;14.10;99.90
5041;DHT22;2539;52.568;13.364;2023-03-14T12:11:58;14.10;99.90
5041;DHT22;2539;52.568;13.364;2023-03-14T12:14:28;14.10;99.90
5041;DHT22;2539;52.568;13.364;2023-03-14T12:17:25;14.10;99.90
5041;DHT22;2539;52.568;13.364;2023-03-14T12:20:24;14.10;99.90
5041;DHT22;2539;52.568;13.364;2023-03-14T12:22:53;14.20;99.90
5041;DHT22;2539;52.568;13.364;2023-03-14T12:25:24;14.30;99.90
5041;DHT22;2539;52.568;13.364;2023-03-14T12:35:40;15.00;99.90
5041;DHT22;2539;52.568;13.364;2023-03-14T12:40:47;15.30;99.90
5041;DHT22;2539;52.568;13.364;2023-03-14T12:43:32;15.40;99.90
5041;DHT22;2539;52.568;13.364;2023-03-14T12:46:09;15.40;99.90
5041;DHT22;2539;52.568;13.364;2023-03-14T12:48:40;15.40;99.90
5041;DHT22;2539;52.568;13.364;2023-03-14T12:51:15;15.20;99.90
5041;DHT22;2539;52.568;13.364;2023-03-14T12:53:55;15.90;99.90
5041;DHT22;2539;52.568;13.364;2023-03-14T12:57:10;15.00;99.90
5041;DHT22;2539;52.568;13.364;2023-03-14T12:59:56;14.80;99.90
5041;DHT22;2539;52.568;13.364;2023-03-14T13:02:29;14.70;99.90
5041;DHT22;2539;52.568;13.364;2023-03-14T13:10:26;14.60;99.90
5041;DHT22;2539;52.568;13.364;2023-03-14T13:13:22;14.70;99.90
5041;DHT22;2539;52.568;13.364;2023-03-14T13:15:58;14.90;99.90
5041;DHT22;2539;52.568;13.364;2023-03-14T13:20:59;15.60;99.90
5041;DHT22;2539;52.568;13.364;2023-03-14T13:23:30;15.60;99.90
5041;DHT22;2539;52.568;13.364;2023-03-14T13:25:58;15.30;99.90
5041;DHT22;2539;52.568;13.364;2023-03-14T13:28:26;14.60;99.90
5041;DHT22;2539;52.568;13.364;2023-03-14T13:30:59;14.40;99.90
5041;DHT22;2539;52.568;13.364;2023-03-14T13:33:26;14.40;99.90
5041;DHT22;2539;52.568;13.364;2023-03-14T13:35:58;14.10;99.90
5041;DHT22;2539;52.568;13.364;2023-03-14T13:38:29;14.00;99.90
5041;DHT22;2539;52.568;13.364;2023-03-14T13:40:58;14.10;99.90
5041;DHT22;2539;52.568;13.364;2023-03-14T13:43:36;14.20;99.90
5041;DHT22;2539;52.568;13.364;2023-03-14T13:46:12;14.40;99.90
5041;DHT22;2539;52.568;13.364;2023-03-14T13:48:47;14.60;99.90
5041;DHT22;2539;52.568;13.364;2023-03-14T13:51:16;14.70;99.90
5041;DHT22;2539;52.568;13.364;2023-03-14T13:53:51;14.90;99.90
5041;DHT22;2539;52.568;13.364;2023-03-14T13:56:20;14.70;99.90
5041;DHT22;2539;52.568;13.364;2023-03-14T13:58:47;14.60;99.90
5041;DHT22;2539;52.568;13.364;2023-03-14T14:01:26;14.80;99.90
5041;DHT22;2539;52.568;13.364;2023-03-14T14:03:56;14.80;99.90
5041;DHT22;2539;52.568;13.364;2023-03-14T14:06:38;15.20;99.90
5041;DHT22;2539;52.568;13.364;2023-03-14T14:09:14;15.00;99.90
5041;DHT22;2539;52.568;13.364;2023-03-14T14:14:40;14.70;99.90
5041;DHT22;2539;52.568;13.364;2023-03-14T14:17:20;14.70;99.90
5041;DHT22;2539;52.568;13.364;2023-03-14T14:19:47;14.60;99.90
5041;DHT22;2539;52.568;13.364;2023-03-14T14:22:14;14.50;99.90
5041;DHT22;2539;52.568;13.364;2023-03-14T14:24:40;14.50;99.90
5041;DHT22;2539;52.568;13.364;2023-03-14T14:27:16;14.60;99.90
5041;DHT22;2539;52.568;13.364;2023-03-14T14:32:14;14.70;99.90
5041;DHT22;2539;52.568;13.364;2023-03-14T14:34:46;14.70;99.90
5041;DHT22;2539;52.568;13.364;2023-03-14T14:37:20;14.70;99.90
5041;DHT22;2539;52.568;13.364;2023-03-14T14:42:15;14.40;99.90
5041;DHT22;2539;52.568;13.364;2023-03-14T14:47:15;14.10;99.90
5041;DHT22;2539;52.568;13.364;2023-03-14T14:49:41;14.20;99.90
5041;DHT22;2539;52.568;13.364;2023-03-14T14:52:15;13.90;99.90
5041;DHT22;2539;52.568;13.364;2023-03-14T14:57:19;13.80;99.90
5041;DHT22;2539;52.568;13.364;2023-03-14T14:59:49;13.30;99.90
5041;DHT22;2539;52.568;13.364;2023-03-14T15:02:37;12.90;99.90
5041;DHT22;2539;52.568;13.364;2023-03-14T15:05:16;12.50;99.90
5041;DHT22;2539;52.568;13.364;2023-03-14T15:07:43;12.40;99.90
5041;DHT22;2539;52.568;13.364;2023-03-14T15:10:20;12.50;99.90
5041;DHT22;2539;52.568;13.364;2023-03-14T15:15:14;10.30;99.90
5041;DHT22;2539;52.568;13.364;2023-03-14T15:17:42;8.30;99.90
5041;DHT22;2539;52.568;13.364;2023-03-14T15:20:14;7.20;99.90
5041;DHT22;2539;52.568;13.364;2023-03-14T15:22:41;6.60;99.90
5041;DHT22;2539;52.568;13.364;2023-03-14T15:25:08;6.30;99.90
5041;DHT22;2539;52.568;13.364;2023-03-14T15:32:29;6.00;99.90
5041;DHT22;2539;52.568;13.364;2023-03-14T15:34:56;6.00;99.90
5041;DHT22;2539;52.568;13.364;2023-03-14T15:47:10;5.10;99.90
5041;DHT22;2539;52.568;13.364;2023-03-14T15:49:36;4.80;99.90
5041;DHT22;2539;52.568;13.364;2023-03-14T15:54:28;4.20;99.90
5041;DHT22;2539;52.568;13.364;2023-03-14T15:56:56;3.60;99.90
5041;DHT22;2539;52.568;13.364;2023-03-14T15:59:23;3.30;99.90
5041;DHT22;2539;52.568;13.364;2023-03-14T16:01:49;3.00;99.90
5041;DHT22;2539;52.568;13.364;2023-03-14T16:04:16;2.90;99.90
5041;DHT22;2539;52.568;13.364;2023-03-14T16:06:43;2.80;99.90
5041;DHT22;2539;52.568;13.364;2023-03-14T16:09:11;3.00;99.90
5041;DHT22;2539;52.568;13.364;2023-03-14T16:11:37;2.80;99.90
5041;DHT22;2539;52.568;13.364;2023-03-14T16:16:30;2.80;99.90
5041;DHT22;2539;52.568;13.364;2023-03-14T16:18:57;3.00;99.90
5041;DHT22;2539;52.568;13.364;2023-03-14T16:21:23;2.70;99.90
5041;DHT22;2539;52.568;13.364;2023-03-14T16:23:49;2.60;99.90
5041;DHT22;2539;52.568;13.364;2023-03-14T16:26:17;2.30;99.90
5041;DHT22;2539;52.568;13.364;2023-03-14T16:28:44;2.30;99.90
5041;DHT22;2539;52.568;13.364;2023-03-14T16:31:12;2.20;99.90
5041;DHT22;2539;52.568;13.364;2023-03-14T16:33:39;1.90;99.90
5041;DHT22;2539;52.568;13.364;2023-03-14T16:36:07;1.70;99.90
5041;DHT22;2539;52.568;13.364;2023-03-14T16:38:35;1.70;99.90
5041;DHT22;2539;52.568;13.364;2023-03-14T16:41:04;1.90;99.90
5041;DHT22;2539;52.568;13.364;2023-03-14T16:43:31;1.90;99.90
5041;DHT22;2539;52.568;13.364;2023-03-14T16:48:26;1.80;99.90
5041;DHT22;2539;52.568;13.364;2023-03-14T16:53:19;1.70;99.90
5041;DHT22;2539;52.568;13.364;2023-03-14T17:03:04;1.90;99.90
5041;DHT22;2539;52.568;13.364;2023-03-14T17:12:51;1.90;99.90
5041;DHT22;2539;52.568;13.364;2023-03-14T17:17:44;1.90;99.90
5041;DHT22;2539;52.568;13.364;2023-03-14T17:22:38;1.90;99.90
5041;DHT22;2539;52.568;13.364;2023-03-14T17:27:32;2.10;99.90
5041;DHT22;2539;52.568;13.364;2023-03-14T17:30:02;2.10;99.90
5041;DHT22;2539;52.568;13.364;2023-03-14T17:34:56;2.30;99.90
5041;DHT22;2539;52.568;13.364;2023-03-14T17:37:22;2.30;99.90
5041;DHT22;2539;52.568;13.364;2023-03-14T17:47:09;2.40;99.90
5041;DHT22;2539;52.568;13.364;2023-03-14T17:52:06;2.50;99.90
5041;DHT22;2539;52.568;13.364;2023-03-14T17:57:11;2.70;99.90
5041;DHT22;2539;52.568;13.364;2023-03-14T17:59:37;2.60;99.90
5041;DHT22;2539;52.568;13.364;2023-03-14T18:04:32;2.90;99.90
5041;DHT22;2539;52.568;13.364;2023-03-14T18:06:58;2.70;99.90
5041;DHT22;2539;52.568;13.364;2023-03-14T18:14:17;2.80;99.90
5041;DHT22;2539;52.568;13.364;2023-03-14T18:19:14;2.90;99.90
5041;DHT22;2539;52.568;13.364;2023-03-14T18:24:07;3.00;99.90
5041;DHT22;2539;52.568;13.364;2023-03-14T18:26:33;3.10;99.90
5041;DHT22;2539;52.568;13.364;2023-03-14T18:28:59;3.10;99.90
5041;DHT22;2539;52.568;13.364;2023-03-14T18:33:54;3.10;99.90
5041;DHT22;2539;52.568;13.364;2023-03-14T18:36:22;3.10;99.90
5041;DHT22;2539;52.568;13.364;2023-03-14T18:41:22;3.00;99.90
5041;DHT22;2539;52.568;13.364;2023-03-14T18:43:49;3.10;99.90
5041;DHT22;2539;52.568;13.364;2023-03-14T18:46:16;3.10;99.90
5041;DHT22;2539;52.568;13.364;2023-03-14T18:51:10;3.20;99.90
5041;DHT22;2539;52.568;13.364;2023-03-14T18:53:38;3.20;99.90
5041;DHT22;2539;52.568;13.364;2023-03-14T18:56:04;3.20;99.90
5041;DHT22;2539;52.568;13.364;2023-03-14T19:01:00;3.20;99.90
5041;DHT22;2539;52.568;13.364;2023-03-14T19:03:27;3.20;99.90
5041;DHT22;2539;52.568;13.364;2023-03-14T19:05:55;3.10;99.90
5041;DHT22;2539;52.568;13.364;2023-03-14T19:08:21;3.10;99.90
5041;DHT22;2539;52.568;13.364;2023-03-14T19:10:52;3.20;99.90
5041;DHT22;2539;52.568;13.364;2023-03-14T19:13:21;3.10;99.90
5041;DHT22;2539;52.568;13.364;2023-03-14T19:20:41;3.20;99.90
5041;DHT22;2539;52.568;13.364;2023-03-14T19:23:09;3.20;99.90
5041;DHT22;2539;52.568;13.364;2023-03-14T19:25:39;3.20;99.90
5041;DHT22;2539;52.568;13.364;2023-03-14T19:28:06;3.30;99.90
5041;DHT22;2539;52.568;13.364;2023-03-14T19:30:33;3.30;99.90
5041;DHT22;2539;52.568;13.364;2023-03-14T19:32:59;3.30;99.90
5041;DHT22;2539;52.568;13.364;2023-03-14T19:42:46;3.30;99.90
5041;DHT22;2539;52.568;13.364;2023-03-14T19:59:56;3.10;99.90
5041;DHT22;2539;52.568;13.364;2023-03-14T20:04:51;3.00;99.90
5041;DHT22;2539;52.568;13.364;2023-03-14T20:07:19;2.90;99.90
5041;DHT22;2539;52.568;13.364;2023-03-14T20:09:46;2.90;99.90
5041;DHT22;2539;52.568;13.364;2023-03-14T20:12:13;2.90;99.90
5041;DHT22;2539;52.568;13.364;2023-03-14T20:14:39;2.90;99.90
5041;DHT22;2539;52.568;13.364;2023-03-14T20:17:06;2.90;99.90
5041;DHT22;2539;52.568;13.364;2023-03-14T20:19:33;2.80;99.90
5041;DHT22;2539;52.568;13.364;2023-03-14T20:21:59;2.80;99.90
5041;DHT22;2539;52.568;13.364;2023-03-14T20:24:25;2.80;99.90
5041;DHT22;2539;52.568;13.364;2023-03-14T20:26:51;2.80;99.90
5041;DHT22;2539;52.568;13.364;2023-03-14T20:29:18;2.80;99.90
5041;DHT22;2539;52.568;13.364;2023-03-14T20:31:45;2.60;99.90
5041;DHT22;2539;52.568;13.364;2023-03-14T20:34:11;2.60;99.90
5041;DHT22;2539;52.568;13.364;2023-03-14T20:41:31;2.60;99.90
5041;DHT22;2539;52.568;13.364;2023-03-14T20:46:24;2.50;99.90
5041;DHT22;2539;52.568;13.364;2023-03-14T20:53:43;2.50;99.90
5041;DHT22;2539;52.568;13.364;2023-03-14T21:03:31;2.70;99.90
5041;DHT22;2539;52.568;13.364;2023-03-14T21:05:57;2.70;99.90
5041;DHT22;2539;52.568;13.364;2023-03-14T21:10:54;2.40;99.90
5041;DHT22;2539;52.568;13.364;2023-03-14T21:13:22;2.80;99.90
5041;DHT22;2539;52.568;13.364;2023-03-14T21:15:48;2.80;99.90
5041;DHT22;2539;52.568;13.364;2023-03-14T21:23:07;2.80;99.90
5041;DHT22;2539;52.568;13.364;2023-03-14T21:25:34;2.80;99.90
5041;DHT22;2539;52.568;13.364;2023-03-14T21:28:00;2.90;99.90
5041;DHT22;2539;52.568;13.364;2023-03-14T21:30:33;2.80;99.90
5041;DHT22;2539;52.568;13.364;2023-03-14T21:33:00;2.80;99.90
5041;DHT22;2539;52.568;13.364;2023-03-14T21:50:13;2.40;99.90
5041;DHT22;2539;52.568;13.364;2023-03-14T21:52:42;2.30;99.90
5041;DHT22;2539;52.568;13.364;2023-03-14T21:55:12;2.20;99.90
5041;DHT22;2539;52.568;13.364;2023-03-14T21:57:44;2.10;99.90
5041;DHT22;2539;52.568;13.364;2023-03-14T22:00:13;2.30;99.90
5041;DHT22;2539;52.568;13.364;2023-03-14T22:02:46;2.20;99.90
5041;DHT22;2539;52.568;13.364;2023-03-14T22:05:15;2.10;99.90
5041;DHT22;2539;52.568;13.364;2023-03-14T22:07:42;2.20;99.90
5041;DHT22;2539;52.568;13.364;2023-03-14T22:10:10;2.30;99.90
5041;DHT22;2539;52.568;13.364;2023-03-14T22:12:37;2.20;99.90
5041;DHT22;2539;52.568;13.364;2023-03-14T22:15:08;2.10;99.90
5041;DHT22;2539;52.568;13.364;2023-03-14T22:17:35;2.00;99.90
5041;DHT22;2539;52.568;13.364;2023-03-14T22:20:02;2.10;99.90
5041;DHT22;2539;52.568;13.364;2023-03-14T22:22:31;2.30;99.90
5041;DHT22;2539;52.568;13.364;2023-03-14T22:32:25;2.30;99.90